Disclaimer

Please do not use the information listed here in-flight or in-navigation, as they are not provided to us by the airports but are provided by volunteers, so they might be outdated.

Search


Regions


Airport information page

No radio frequency information is available.

Airport informations:
Latitude: 37° 14' 43.61" N
Longitude: 009° 47' 29.23" E
Elevation: 20 feet - 6 meters
Operating hours: N/A
Operating agency: Military
Timezone: N/A
Fuel: Jet A1, without icing nhibitor.

100/130 MIL Spec, low lead, aviation gasoline (BLUE)

Runway information:
08/26 - 9845 x 166 feet< - >3001 x 51 meters
11/29 - 3975 x 164 feet< - >1212 x 50 meters

Recent METARs:
DTTB 130400Z 15006KT 5000 FEW020 17/16 Q1024
DTTB 130500Z 10005KT 5000 FEW020 16/16 Q1024
DTTB 130500Z 10005KT 5000 FEW020 16/16 Q1024

Airport on the map: